sensor_id;sensor_type;location;lat;lon;timestamp;P1;durP1;ratioP1;P2;durP2;ratioP2
9968;SDS011;5025;48.890;9.278;2024-03-17T00:01:06;6.23;;;5.73;;
9968;SDS011;5025;48.890;9.278;2024-03-17T00:03:31;6.60;;;6.10;;
9968;SDS011;5025;48.890;9.278;2024-03-17T00:05:57;5.90;;;5.50;;
9968;SDS011;5025;48.890;9.278;2024-03-17T00:08:23;5.90;;;5.50;;
9968;SDS011;5025;48.890;9.278;2024-03-17T00:10:54;5.10;;;4.80;;
9968;SDS011;5025;48.890;9.278;2024-03-17T00:13:20;5.63;;;5.23;;
9968;SDS011;5025;48.890;9.278;2024-03-17T00:15:46;5.40;;;5.00;;
9968;SDS011;5025;48.890;9.278;2024-03-17T00:18:12;5.30;;;5.00;;
9968;SDS011;5025;48.890;9.278;2024-03-17T00:20:37;5.73;;;5.33;;
9968;SDS011;5025;48.890;9.278;2024-03-17T00:23:05;5.77;;;5.37;;
9968;SDS011;5025;48.890;9.278;2024-03-17T00:25:31;5.60;;;5.20;;
9968;SDS011;5025;48.890;9.278;2024-03-17T00:27:58;5.47;;;5.07;;
9968;SDS011;5025;48.890;9.278;2024-03-17T00:30:24;5.57;;;5.17;;
9968;SDS011;5025;48.890;9.278;2024-03-17T00:32:49;6.00;;;5.60;;
9968;SDS011;5025;48.890;9.278;2024-03-17T00:35:14;6.50;;;6.00;;
9968;SDS011;5025;48.890;9.278;2024-03-17T00:37:45;5.93;;;5.53;;
9968;SDS011;5025;48.890;9.278;2024-03-17T00:40:14;5.50;;;5.10;;
9968;SDS011;5025;48.890;9.278;2024-03-17T00:42:39;6.80;;;6.30;;
9968;SDS011;5025;48.890;9.278;2024-03-17T00:45:05;6.90;;;6.30;;
9968;SDS011;5025;48.890;9.278;2024-03-17T00:47:31;6.60;;;6.10;;
9968;SDS011;5025;48.890;9.278;2024-03-17T00:49:57;6.20;;;5.70;;
9968;SDS011;5025;48.890;9.278;2024-03-17T00:52:22;6.13;;;5.67;;
9968;SDS011;5025;48.890;9.278;2024-03-17T00:54:48;5.93;;;5.53;;
9968;SDS011;5025;48.890;9.278;2024-03-17T00:57:13;6.40;;;5.97;;
9968;SDS011;5025;48.890;9.278;2024-03-17T00:59:39;6.17;;;5.67;;
9968;SDS011;5025;48.890;9.278;2024-03-17T01:02:04;5.60;;;5.20;;
9968;SDS011;5025;48.890;9.278;2024-03-17T01:04:30;5.27;;;4.87;;
9968;SDS011;5025;48.890;9.278;2024-03-17T01:06:58;5.10;;;4.70;;
9968;SDS011;5025;48.890;9.278;2024-03-17T01:09:24;5.13;;;4.83;;
9968;SDS011;5025;48.890;9.278;2024-03-17T01:11:49;5.00;;;4.70;;
9968;SDS011;5025;48.890;9.278;2024-03-17T01:14:14;4.80;;;4.50;;
9968;SDS011;5025;48.890;9.278;2024-03-17T01:16:40;4.70;;;4.40;;
9968;SDS011;5025;48.890;9.278;2024-03-17T01:19:05;4.87;;;4.57;;
9968;SDS011;5025;48.890;9.278;2024-03-17T01:21:31;4.33;;;4.03;;
9968;SDS011;5025;48.890;9.278;2024-03-17T01:23:56;4.60;;;4.30;;
9968;SDS011;5025;48.890;9.278;2024-03-17T01:26:22;4.50;;;4.20;;
9968;SDS011;5025;48.890;9.278;2024-03-17T01:28:48;5.03;;;4.63;;
9968;SDS011;5025;48.890;9.278;2024-03-17T01:31:14;5.00;;;4.70;;
9968;SDS011;5025;48.890;9.278;2024-03-17T01:33:39;4.60;;;4.30;;
9968;SDS011;5025;48.890;9.278;2024-03-17T01:36:04;4.67;;;4.37;;
9968;SDS011;5025;48.890;9.278;2024-03-17T01:38:30;4.60;;;4.30;;
9968;SDS011;5025;48.890;9.278;2024-03-17T01:40:55;5.13;;;4.73;;
9968;SDS011;5025;48.890;9.278;2024-03-17T01:43:21;4.97;;;4.60;;
9968;SDS011;5025;48.890;9.278;2024-03-17T01:45:46;5.53;;;5.13;;
9968;SDS011;5025;48.890;9.278;2024-03-17T01:48:13;4.77;;;4.47;;
9968;SDS011;5025;48.890;9.278;2024-03-17T01:50:41;5.77;;;5.27;;
9968;SDS011;5025;48.890;9.278;2024-03-17T01:53:08;5.87;;;5.47;;
9968;SDS011;5025;48.890;9.278;2024-03-17T01:55:37;7.00;;;6.40;;
9968;SDS011;5025;48.890;9.278;2024-03-17T01:58:03;7.10;;;6.57;;
9968;SDS011;5025;48.890;9.278;2024-03-17T02:00:32;7.13;;;6.53;;
9968;SDS011;5025;48.890;9.278;2024-03-17T02:02:59;7.53;;;6.87;;
9968;SDS011;5025;48.890;9.278;2024-03-17T02:05:24;7.00;;;6.40;;
9968;SDS011;5025;48.890;9.278;2024-03-17T02:07:49;6.80;;;6.20;;
9968;SDS011;5025;48.890;9.278;2024-03-17T02:10:15;6.43;;;5.93;;
9968;SDS011;5025;48.890;9.278;2024-03-17T02:12:40;6.40;;;5.90;;
9968;SDS011;5025;48.890;9.278;2024-03-17T02:15:06;6.40;;;5.80;;
9968;SDS011;5025;48.890;9.278;2024-03-17T02:17:32;5.40;;;5.00;;
9968;SDS011;5025;48.890;9.278;2024-03-17T02:19:58;5.00;;;4.60;;
9968;SDS011;5025;48.890;9.278;2024-03-17T02:22:23;5.33;;;4.93;;
9968;SDS011;5025;48.890;9.278;2024-03-17T02:24:48;5.37;;;4.97;;
9968;SDS011;5025;48.890;9.278;2024-03-17T02:27:14;4.67;;;4.37;;
9968;SDS011;5025;48.890;9.278;2024-03-17T02:29:39;5.27;;;4.77;;
9968;SDS011;5025;48.890;9.278;2024-03-17T02:32:07;5.20;;;4.80;;
9968;SDS011;5025;48.890;9.278;2024-03-17T02:34:36;4.70;;;4.30;;
9968;SDS011;5025;48.890;9.278;2024-03-17T02:37:02;5.10;;;4.70;;
9968;SDS011;5025;48.890;9.278;2024-03-17T02:39:29;4.50;;;4.20;;
9968;SDS011;5025;48.890;9.278;2024-03-17T02:42:04;4.53;;;4.27;;
9968;SDS011;5025;48.890;9.278;2024-03-17T02:44:34;4.50;;;4.20;;
9968;SDS011;5025;48.890;9.278;2024-03-17T02:47:01;4.90;;;4.60;;
9968;SDS011;5025;48.890;9.278;2024-03-17T02:49:29;4.40;;;4.10;;
9968;SDS011;5025;48.890;9.278;2024-03-17T02:52:01;4.70;;;4.40;;
9968;SDS011;5025;48.890;9.278;2024-03-17T02:54:27;4.37;;;4.07;;
9968;SDS011;5025;48.890;9.278;2024-03-17T02:56:52;5.20;;;4.80;;
9968;SDS011;5025;48.890;9.278;2024-03-17T02:59:17;4.63;;;4.33;;
9968;SDS011;5025;48.890;9.278;2024-03-17T03:01:43;4.80;;;4.50;;
9968;SDS011;5025;48.890;9.278;2024-03-17T03:04:09;4.60;;;4.30;;
9968;SDS011;5025;48.890;9.278;2024-03-17T03:06:35;4.30;;;4.00;;
9968;SDS011;5025;48.890;9.278;2024-03-17T03:09:00;4.40;;;4.10;;
9968;SDS011;5025;48.890;9.278;2024-03-17T03:11:25;4.17;;;3.97;;
9968;SDS011;5025;48.890;9.278;2024-03-17T03:13:50;4.00;;;3.70;;
9968;SDS011;5025;48.890;9.278;2024-03-17T03:16:16;4.30;;;4.00;;
9968;SDS011;5025;48.890;9.278;2024-03-17T03:18:43;4.10;;;3.90;;
9968;SDS011;5025;48.890;9.278;2024-03-17T03:21:09;3.80;;;3.60;;
9968;SDS011;5025;48.890;9.278;2024-03-17T03:23:36;4.20;;;3.90;;
9968;SDS011;5025;48.890;9.278;2024-03-17T03:26:02;3.77;;;3.57;;
9968;SDS011;5025;48.890;9.278;2024-03-17T03:28:29;4.50;;;4.10;;
9968;SDS011;5025;48.890;9.278;2024-03-17T03:30:58;4.60;;;4.30;;
9968;SDS011;5025;48.890;9.278;2024-03-17T03:33:24;4.60;;;4.30;;
9968;SDS011;5025;48.890;9.278;2024-03-17T03:35:49;5.20;;;4.80;;
9968;SDS011;5025;48.890;9.278;2024-03-17T03:38:15;5.93;;;5.03;;
9968;SDS011;5025;48.890;9.278;2024-03-17T03:40:42;6.27;;;5.67;;
9968;SDS011;5025;48.890;9.278;2024-03-17T03:43:08;5.73;;;5.33;;
9968;SDS011;5025;48.890;9.278;2024-03-17T03:45:34;6.33;;;5.83;;
9968;SDS011;5025;48.890;9.278;2024-03-17T03:48:00;5.47;;;5.07;;
9968;SDS011;5025;48.890;9.278;2024-03-17T03:50:26;5.70;;;5.30;;
9968;SDS011;5025;48.890;9.278;2024-03-17T03:52:51;5.63;;;5.23;;
9968;SDS011;5025;48.890;9.278;2024-03-17T03:55:16;5.57;;;5.17;;
9968;SDS011;5025;48.890;9.278;2024-03-17T03:57:42;6.07;;;5.57;;
9968;SDS011;5025;48.890;9.278;2024-03-17T04:00:11;5.57;;;5.07;;
9968;SDS011;5025;48.890;9.278;2024-03-17T04:02:40;5.30;;;4.90;;
9968;SDS011;5025;48.890;9.278;2024-03-17T04:05:06;5.13;;;4.83;;
9968;SDS011;5025;48.890;9.278;2024-03-17T04:07:32;5.53;;;5.13;;
9968;SDS011;5025;48.890;9.278;2024-03-17T04:09:57;5.50;;;5.10;;
9968;SDS011;5025;48.890;9.278;2024-03-17T04:12:23;4.80;;;4.50;;
9968;SDS011;5025;48.890;9.278;2024-03-17T04:14:50;4.70;;;4.40;;
9968;SDS011;5025;48.890;9.278;2024-03-17T04:17:21;5.00;;;4.60;;
9968;SDS011;5025;48.890;9.278;2024-03-17T04:19:47;4.37;;;4.07;;
9968;SDS011;5025;48.890;9.278;2024-03-17T04:22:13;4.43;;;4.13;;
9968;SDS011;5025;48.890;9.278;2024-03-17T04:24:39;4.80;;;4.50;;
9968;SDS011;5025;48.890;9.278;2024-03-17T04:27:04;4.60;;;4.30;;
9968;SDS011;5025;48.890;9.278;2024-03-17T04:29:30;4.90;;;4.50;;
9968;SDS011;5025;48.890;9.278;2024-03-17T04:31:55;5.10;;;4.70;;
9968;SDS011;5025;48.890;9.278;2024-03-17T04:34:20;4.87;;;4.57;;
9968;SDS011;5025;48.890;9.278;2024-03-17T04:36:46;4.53;;;4.23;;
9968;SDS011;5025;48.890;9.278;2024-03-17T04:39:11;4.50;;;4.20;;
9968;SDS011;5025;48.890;9.278;2024-03-17T04:41:37;3.83;;;3.60;;
9968;SDS011;5025;48.890;9.278;2024-03-17T04:44:03;3.70;;;3.50;;
9968;SDS011;5025;48.890;9.278;2024-03-17T04:46:31;3.37;;;3.17;;
9968;SDS011;5025;48.890;9.278;2024-03-17T04:48:56;3.47;;;3.27;;
9968;SDS011;5025;48.890;9.278;2024-03-17T04:51:22;3.17;;;2.97;;
9968;SDS011;5025;48.890;9.278;2024-03-17T04:53:47;3.20;;;3.00;;
9968;SDS011;5025;48.890;9.278;2024-03-17T04:56:12;3.30;;;3.10;;
9968;SDS011;5025;48.890;9.278;2024-03-17T04:58:38;2.70;;;2.60;;
9968;SDS011;5025;48.890;9.278;2024-03-17T05:01:04;2.80;;;2.70;;
9968;SDS011;5025;48.890;9.278;2024-03-17T05:03:31;2.67;;;2.57;;
9968;SDS011;5025;48.890;9.278;2024-03-17T05:06:00;2.73;;;2.63;;
9968;SDS011;5025;48.890;9.278;2024-03-17T05:08:29;2.90;;;2.80;;
9968;SDS011;5025;48.890;9.278;2024-03-17T05:10:58;2.70;;;2.60;;
9968;SDS011;5025;48.890;9.278;2024-03-17T05:13:27;2.90;;;2.73;;
9968;SDS011;5025;48.890;9.278;2024-03-17T05:15:53;2.87;;;2.77;;
9968;SDS011;5025;48.890;9.278;2024-03-17T05:18:19;2.87;;;2.77;;
9968;SDS011;5025;48.890;9.278;2024-03-17T05:20:45;3.03;;;2.90;;
9968;SDS011;5025;48.890;9.278;2024-03-17T05:23:12;3.10;;;3.00;;
9968;SDS011;5025;48.890;9.278;2024-03-17T05:25:38;3.23;;;3.03;;
9968;SDS011;5025;48.890;9.278;2024-03-17T05:28:04;2.90;;;2.80;;
9968;SDS011;5025;48.890;9.278;2024-03-17T05:30:29;3.30;;;3.10;;
9968;SDS011;5025;48.890;9.278;2024-03-17T05:32:55;3.13;;;2.93;;
9968;SDS011;5025;48.890;9.278;2024-03-17T05:35:20;2.83;;;2.73;;
9968;SDS011;5025;48.890;9.278;2024-03-17T05:37:46;2.90;;;2.77;;
9968;SDS011;5025;48.890;9.278;2024-03-17T05:40:11;2.90;;;2.80;;
9968;SDS011;5025;48.890;9.278;2024-03-17T05:42:41;2.97;;;2.87;;
9968;SDS011;5025;48.890;9.278;2024-03-17T05:45:08;2.70;;;2.60;;
9968;SDS011;5025;48.890;9.278;2024-03-17T05:47:36;3.50;;;3.30;;
9968;SDS011;5025;48.890;9.278;2024-03-17T05:50:01;4.20;;;3.90;;
9968;SDS011;5025;48.890;9.278;2024-03-17T05:52:26;4.53;;;4.20;;
9968;SDS011;5025;48.890;9.278;2024-03-17T05:54:52;5.10;;;4.70;;
9968;SDS011;5025;48.890;9.278;2024-03-17T05:57:17;5.10;;;4.70;;
9968;SDS011;5025;48.890;9.278;2024-03-17T05:59:42;5.07;;;4.67;;
9968;SDS011;5025;48.890;9.278;2024-03-17T06:02:07;4.60;;;4.30;;
9968;SDS011;5025;48.890;9.278;2024-03-17T06:04:35;4.33;;;4.03;;
9968;SDS011;5025;48.890;9.278;2024-03-17T06:07:00;4.40;;;4.10;;
9968;SDS011;5025;48.890;9.278;2024-03-17T06:09:25;4.57;;;4.27;;
9968;SDS011;5025;48.890;9.278;2024-03-17T06:11:51;5.17;;;4.67;;
9968;SDS011;5025;48.890;9.278;2024-03-17T06:14:16;5.10;;;4.70;;
9968;SDS011;5025;48.890;9.278;2024-03-17T06:16:41;4.30;;;4.00;;
9968;SDS011;5025;48.890;9.278;2024-03-17T06:19:06;4.03;;;3.77;;
9968;SDS011;5025;48.890;9.278;2024-03-17T06:21:32;3.60;;;3.40;;
9968;SDS011;5025;48.890;9.278;2024-03-17T06:23:57;3.30;;;3.10;;
9968;SDS011;5025;48.890;9.278;2024-03-17T06:26:22;3.47;;;3.27;;
9968;SDS011;5025;48.890;9.278;2024-03-17T06:28:48;3.40;;;3.20;;
9968;SDS011;5025;48.890;9.278;2024-03-17T06:31:13;3.37;;;3.17;;
9968;SDS011;5025;48.890;9.278;2024-03-17T06:33:38;3.10;;;2.90;;
9968;SDS011;5025;48.890;9.278;2024-03-17T06:36:04;3.20;;;3.00;;
9968;SDS011;5025;48.890;9.278;2024-03-17T06:38:30;3.33;;;3.03;;
9968;SDS011;5025;48.890;9.278;2024-03-17T06:40:56;3.20;;;3.00;;
9968;SDS011;5025;48.890;9.278;2024-03-17T06:43:21;3.30;;;3.10;;
9968;SDS011;5025;48.890;9.278;2024-03-17T06:45:53;4.03;;;3.73;;
9968;SDS011;5025;48.890;9.278;2024-03-17T06:48:20;5.30;;;4.90;;
9968;SDS011;5025;48.890;9.278;2024-03-17T06:50:46;5.47;;;5.07;;
9968;SDS011;5025;48.890;9.278;2024-03-17T06:53:11;5.30;;;4.90;;
9968;SDS011;5025;48.890;9.278;2024-03-17T06:55:36;5.00;;;4.60;;
9968;SDS011;5025;48.890;9.278;2024-03-17T06:58:02;4.60;;;4.30;;
9968;SDS011;5025;48.890;9.278;2024-03-17T07:00:28;4.73;;;4.33;;
9968;SDS011;5025;48.890;9.278;2024-03-17T07:02:53;5.00;;;4.60;;
9968;SDS011;5025;48.890;9.278;2024-03-17T07:05:19;5.53;;;4.13;;
9968;SDS011;5025;48.890;9.278;2024-03-17T07:07:44;5.10;;;4.70;;
9968;SDS011;5025;48.890;9.278;2024-03-17T07:10:10;4.60;;;4.30;;
9968;SDS011;5025;48.890;9.278;2024-03-17T07:12:39;4.17;;;3.87;;
9968;SDS011;5025;48.890;9.278;2024-03-17T07:15:06;4.73;;;4.33;;
9968;SDS011;5025;48.890;9.278;2024-03-17T07:17:32;4.90;;;4.60;;
9968;SDS011;5025;48.890;9.278;2024-03-17T07:19:57;4.90;;;4.60;;
9968;SDS011;5025;48.890;9.278;2024-03-17T07:22:23;4.87;;;4.57;;
9968;SDS011;5025;48.890;9.278;2024-03-17T07:24:51;5.03;;;4.73;;
9968;SDS011;5025;48.890;9.278;2024-03-17T07:27:20;4.70;;;4.40;;
9968;SDS011;5025;48.890;9.278;2024-03-17T07:29:45;4.47;;;4.17;;
9968;SDS011;5025;48.890;9.278;2024-03-17T07:32:11;5.00;;;4.60;;
9968;SDS011;5025;48.890;9.278;2024-03-17T07:34:36;5.13;;;4.73;;
9968;SDS011;5025;48.890;9.278;2024-03-17T07:37:02;4.53;;;4.23;;
9968;SDS011;5025;48.890;9.278;2024-03-17T07:39:31;4.57;;;4.17;;
9968;SDS011;5025;48.890;9.278;2024-03-17T07:41:59;4.93;;;4.63;;
9968;SDS011;5025;48.890;9.278;2024-03-17T07:44:26;4.33;;;4.03;;
9968;SDS011;5025;48.890;9.278;2024-03-17T07:46:54;4.63;;;4.33;;
9968;SDS011;5025;48.890;9.278;2024-03-17T07:49:19;4.30;;;4.00;;
9968;SDS011;5025;48.890;9.278;2024-03-17T07:51:45;4.50;;;4.20;;
9968;SDS011;5025;48.890;9.278;2024-03-17T07:54:10;5.80;;;5.30;;
9968;SDS011;5025;48.890;9.278;2024-03-17T07:56:36;5.63;;;5.23;;
9968;SDS011;5025;48.890;9.278;2024-03-17T07:59:01;6.50;;;6.00;;
9968;SDS011;5025;48.890;9.278;2024-03-17T08:01:26;6.70;;;6.20;;
9968;SDS011;5025;48.890;9.278;2024-03-17T08:03:52;6.37;;;5.87;;
9968;SDS011;5025;48.890;9.278;2024-03-17T08:06:20;5.60;;;5.20;;
9968;SDS011;5025;48.890;9.278;2024-03-17T08:08:46;5.90;;;5.40;;
9968;SDS011;5025;48.890;9.278;2024-03-17T08:11:12;6.07;;;5.57;;
9968;SDS011;5025;48.890;9.278;2024-03-17T08:13:38;5.70;;;5.30;;
9968;SDS011;5025;48.890;9.278;2024-03-17T08:16:04;5.50;;;5.10;;
9968;SDS011;5025;48.890;9.278;2024-03-17T08:18:34;7.00;;;6.40;;
9968;SDS011;5025;48.890;9.278;2024-03-17T08:21:03;12.73;;;11.53;;
9968;SDS011;5025;48.890;9.278;2024-03-17T08:23:29;10.27;;;9.37;;
9968;SDS011;5025;48.890;9.278;2024-03-17T08:25:56;8.40;;;7.60;;
9968;SDS011;5025;48.890;9.278;2024-03-17T08:28:23;7.30;;;6.70;;
9968;SDS011;5025;48.890;9.278;2024-03-17T08:30:55;7.20;;;6.63;;
9968;SDS011;5025;48.890;9.278;2024-03-17T08:33:24;7.57;;;7.03;;
9968;SDS011;5025;48.890;9.278;2024-03-17T08:35:57;6.90;;;6.37;;
9968;SDS011;5025;48.890;9.278;2024-03-17T08:38:27;7.07;;;6.57;;
9968;SDS011;5025;48.890;9.278;2024-03-17T08:40:54;7.93;;;7.20;;
9968;SDS011;5025;48.890;9.278;2024-03-17T08:43:26;6.90;;;6.40;;
9968;SDS011;5025;48.890;9.278;2024-03-17T08:45:55;7.23;;;6.67;;
9968;SDS011;5025;48.890;9.278;2024-03-17T08:48:32;7.60;;;7.00;;
9968;SDS011;5025;48.890;9.278;2024-03-17T08:50:59;7.30;;;6.70;;
9968;SDS011;5025;48.890;9.278;2024-03-17T08:53:25;7.73;;;7.13;;
9968;SDS011;5025;48.890;9.278;2024-03-17T08:55:51;6.83;;;6.27;;
9968;SDS011;5025;48.890;9.278;2024-03-17T08:58:17;6.90;;;6.40;;
9968;SDS011;5025;48.890;9.278;2024-03-17T09:00:42;5.90;;;5.50;;
9968;SDS011;5025;48.890;9.278;2024-03-17T09:03:08;5.70;;;5.30;;
9968;SDS011;5025;48.890;9.278;2024-03-17T09:05:37;6.10;;;5.70;;
9968;SDS011;5025;48.890;9.278;2024-03-17T09:08:03;8.00;;;7.30;;
9968;SDS011;5025;48.890;9.278;2024-03-17T09:10:28;6.90;;;6.40;;
9968;SDS011;5025;48.890;9.278;2024-03-17T09:12:54;6.57;;;6.07;;
9968;SDS011;5025;48.890;9.278;2024-03-17T09:15:19;7.30;;;6.80;;
9968;SDS011;5025;48.890;9.278;2024-03-17T09:17:45;7.57;;;6.97;;
9968;SDS011;5025;48.890;9.278;2024-03-17T09:20:11;6.40;;;5.90;;
9968;SDS011;5025;48.890;9.278;2024-03-17T09:22:40;6.67;;;6.17;;
9968;SDS011;5025;48.890;9.278;2024-03-17T09:25:06;6.40;;;5.90;;
9968;SDS011;5025;48.890;9.278;2024-03-17T09:27:33;5.90;;;5.47;;
9968;SDS011;5025;48.890;9.278;2024-03-17T09:29:59;6.77;;;6.27;;
9968;SDS011;5025;48.890;9.278;2024-03-17T09:32:25;6.40;;;5.90;;
9968;SDS011;5025;48.890;9.278;2024-03-17T09:34:50;6.97;;;6.47;;
9968;SDS011;5025;48.890;9.278;2024-03-17T09:37:15;5.87;;;5.47;;
9968;SDS011;5025;48.890;9.278;2024-03-17T09:39:41;5.60;;;5.30;;
9968;SDS011;5025;48.890;9.278;2024-03-17T09:42:07;5.90;;;5.40;;
9968;SDS011;5025;48.890;9.278;2024-03-17T09:44:42;5.43;;;5.03;;
9968;SDS011;5025;48.890;9.278;2024-03-17T09:47:10;5.63;;;5.23;;
9968;SDS011;5025;48.890;9.278;2024-03-17T09:49:43;5.10;;;4.80;;
9968;SDS011;5025;48.890;9.278;2024-03-17T09:52:09;5.00;;;4.70;;
9968;SDS011;5025;48.890;9.278;2024-03-17T09:54:44;5.10;;;4.70;;
9968;SDS011;5025;48.890;9.278;2024-03-17T09:57:14;5.20;;;4.80;;
9968;SDS011;5025;48.890;9.278;2024-03-17T09:59:42;4.67;;;4.37;;
9968;SDS011;5025;48.890;9.278;2024-03-17T10:02:16;5.40;;;4.90;;
9968;SDS011;5025;48.890;9.278;2024-03-17T10:04:46;4.43;;;4.23;;
9968;SDS011;5025;48.890;9.278;2024-03-17T10:07:11;5.00;;;4.70;;
9968;SDS011;5025;48.890;9.278;2024-03-17T10:09:36;4.90;;;4.60;;
9968;SDS011;5025;48.890;9.278;2024-03-17T10:12:02;4.77;;;4.47;;
9968;SDS011;5025;48.890;9.278;2024-03-17T10:14:28;4.63;;;4.33;;
9968;SDS011;5025;48.890;9.278;2024-03-17T10:16:53;5.20;;;4.80;;
9968;SDS011;5025;48.890;9.278;2024-03-17T10:19:22;4.73;;;4.43;;
9968;SDS011;5025;48.890;9.278;2024-03-17T10:21:49;4.43;;;4.20;;
9968;SDS011;5025;48.890;9.278;2024-03-17T10:24:22;3.80;;;3.60;;
9968;SDS011;5025;48.890;9.278;2024-03-17T10:26:49;5.20;;;4.90;;
9968;SDS011;5025;48.890;9.278;2024-03-17T10:29:35;5.00;;;4.50;;
9968;SDS011;5025;48.890;9.278;2024-03-17T10:32:04;4.43;;;4.10;;
9968;SDS011;5025;48.890;9.278;2024-03-17T10:34:43;4.60;;;4.30;;
9968;SDS011;5025;48.890;9.278;2024-03-17T10:37:10;4.50;;;4.20;;
9968;SDS011;5025;48.890;9.278;2024-03-17T10:39:39;4.13;;;3.93;;
9968;SDS011;5025;48.890;9.278;2024-03-17T10:42:06;4.70;;;4.40;;
9968;SDS011;5025;48.890;9.278;2024-03-17T10:44:32;3.97;;;3.77;;
9968;SDS011;5025;48.890;9.278;2024-03-17T10:47:00;4.07;;;3.77;;
9968;SDS011;5025;48.890;9.278;2024-03-17T10:49:30;3.97;;;3.77;;
9968;SDS011;5025;48.890;9.278;2024-03-17T10:51:57;3.90;;;3.70;;
9968;SDS011;5025;48.890;9.278;2024-03-17T10:54:25;3.80;;;3.60;;
9968;SDS011;5025;48.890;9.278;2024-03-17T10:56:57;3.80;;;3.60;;
9968;SDS011;5025;48.890;9.278;2024-03-17T10:59:38;3.67;;;3.47;;
9968;SDS011;5025;48.890;9.278;2024-03-17T11:02:25;3.80;;;3.60;;
9968;SDS011;5025;48.890;9.278;2024-03-17T11:04:57;3.37;;;3.17;;
9968;SDS011;5025;48.890;9.278;2024-03-17T11:07:24;3.17;;;2.97;;
9968;SDS011;5025;48.890;9.278;2024-03-17T11:09:51;3.00;;;2.80;;
9968;SDS011;5025;48.890;9.278;2024-03-17T11:20:33;2.90;;;2.70;;
9968;SDS011;5025;48.890;9.278;2024-03-17T11:22:59;3.23;;;3.00;;
9968;SDS011;5025;48.890;9.278;2024-03-17T11:33:45;2.73;;;2.60;;
9968;SDS011;5025;48.890;9.278;2024-03-17T11:38:59;2.37;;;2.27;;
9968;SDS011;5025;48.890;9.278;2024-03-17T11:52:00;2.40;;;2.30;;
9968;SDS011;5025;48.890;9.278;2024-03-17T11:54:28;2.60;;;2.40;;
9968;SDS011;5025;48.890;9.278;2024-03-17T11:56:56;2.37;;;2.20;;
9968;SDS011;5025;48.890;9.278;2024-03-17T11:59:28;2.00;;;1.90;;
9968;SDS011;5025;48.890;9.278;2024-03-17T12:01:54;2.30;;;2.10;;
9968;SDS011;5025;48.890;9.278;2024-03-17T12:04:20;2.23;;;2.10;;
9968;SDS011;5025;48.890;9.278;2024-03-17T12:06:51;2.50;;;2.30;;
9968;SDS011;5025;48.890;9.278;2024-03-17T12:09:21;2.30;;;2.20;;
9968;SDS011;5025;48.890;9.278;2024-03-17T12:12:00;2.43;;;2.30;;
9968;SDS011;5025;48.890;9.278;2024-03-17T12:14:27;2.10;;;2.00;;
9968;SDS011;5025;48.890;9.278;2024-03-17T12:16:53;2.00;;;1.90;;
9968;SDS011;5025;48.890;9.278;2024-03-17T12:19:23;1.73;;;1.73;;
9968;SDS011;5025;48.890;9.278;2024-03-17T12:21:53;1.80;;;1.70;;
9968;SDS011;5025;48.890;9.278;2024-03-17T12:24:23;2.10;;;2.00;;
9968;SDS011;5025;48.890;9.278;2024-03-17T12:26:52;2.30;;;2.20;;
9968;SDS011;5025;48.890;9.278;2024-03-17T12:29:37;3.23;;;2.93;;
9968;SDS011;5025;48.890;9.278;2024-03-17T12:34:45;2.87;;;2.60;;
9968;SDS011;5025;48.890;9.278;2024-03-17T12:37:14;4.03;;;2.60;;
9968;SDS011;5025;48.890;9.278;2024-03-17T12:39:42;2.20;;;2.10;;
9968;SDS011;5025;48.890;9.278;2024-03-17T12:42:08;2.40;;;2.30;;
9968;SDS011;5025;48.890;9.278;2024-03-17T12:44:35;2.47;;;2.37;;
9968;SDS011;5025;48.890;9.278;2024-03-17T12:47:03;2.03;;;1.90;;
9968;SDS011;5025;48.890;9.278;2024-03-17T12:49:31;2.00;;;1.90;;
9968;SDS011;5025;48.890;9.278;2024-03-17T12:51:59;2.40;;;2.20;;
9968;SDS011;5025;48.890;9.278;2024-03-17T12:54:26;2.30;;;2.10;;
9968;SDS011;5025;48.890;9.278;2024-03-17T12:57:05;1.87;;;1.77;;
9968;SDS011;5025;48.890;9.278;2024-03-17T12:59:52;1.60;;;1.50;;
9968;SDS011;5025;48.890;9.278;2024-03-17T13:02:42;1.90;;;1.80;;
9968;SDS011;5025;48.890;9.278;2024-03-17T13:05:18;1.80;;;1.70;;
9968;SDS011;5025;48.890;9.278;2024-03-17T13:07:45;1.80;;;1.70;;
9968;SDS011;5025;48.890;9.278;2024-03-17T13:10:15;1.80;;;1.70;;
9968;SDS011;5025;48.890;9.278;2024-03-17T13:12:41;1.77;;;1.67;;
9968;SDS011;5025;48.890;9.278;2024-03-17T13:15:14;1.80;;;1.70;;
9968;SDS011;5025;48.890;9.278;2024-03-17T13:17:42;2.33;;;2.23;;
9968;SDS011;5025;48.890;9.278;2024-03-17T13:20:14;2.27;;;2.07;;
9968;SDS011;5025;48.890;9.278;2024-03-17T13:22:44;1.80;;;1.70;;
9968;SDS011;5025;48.890;9.278;2024-03-17T13:25:20;1.67;;;1.57;;
9968;SDS011;5025;48.890;9.278;2024-03-17T13:27:48;1.83;;;1.73;;
9968;SDS011;5025;48.890;9.278;2024-03-17T13:30:14;1.80;;;1.70;;
9968;SDS011;5025;48.890;9.278;2024-03-17T13:32:41;1.53;;;1.53;;
9968;SDS011;5025;48.890;9.278;2024-03-17T13:35:22;1.77;;;1.67;;
9968;SDS011;5025;48.890;9.278;2024-03-17T13:37:48;1.70;;;1.60;;
9968;SDS011;5025;48.890;9.278;2024-03-17T13:40:15;1.60;;;1.50;;
9968;SDS011;5025;48.890;9.278;2024-03-17T13:42:43;2.20;;;2.10;;
9968;SDS011;5025;48.890;9.278;2024-03-17T13:45:09;1.90;;;1.80;;
9968;SDS011;5025;48.890;9.278;2024-03-17T13:47:36;2.30;;;2.10;;
9968;SDS011;5025;48.890;9.278;2024-03-17T13:50:01;1.93;;;1.83;;
9968;SDS011;5025;48.890;9.278;2024-03-17T13:52:31;1.80;;;1.70;;
9968;SDS011;5025;48.890;9.278;2024-03-17T13:54:57;1.80;;;1.70;;
9968;SDS011;5025;48.890;9.278;2024-03-17T13:57:22;1.80;;;1.70;;
9968;SDS011;5025;48.890;9.278;2024-03-17T13:59:48;1.80;;;1.70;;
9968;SDS011;5025;48.890;9.278;2024-03-17T14:02:15;1.30;;;1.30;;
9968;SDS011;5025;48.890;9.278;2024-03-17T14:04:40;1.97;;;1.87;;
9968;SDS011;5025;48.890;9.278;2024-03-17T14:07:06;1.70;;;1.60;;
9968;SDS011;5025;48.890;9.278;2024-03-17T14:09:32;1.80;;;1.70;;
9968;SDS011;5025;48.890;9.278;2024-03-17T14:11:57;2.17;;;2.07;;
9968;SDS011;5025;48.890;9.278;2024-03-17T14:14:23;2.00;;;1.90;;
9968;SDS011;5025;48.890;9.278;2024-03-17T14:16:48;2.13;;;2.03;;
9968;SDS011;5025;48.890;9.278;2024-03-17T14:19:14;1.90;;;1.80;;
9968;SDS011;5025;48.890;9.278;2024-03-17T14:21:39;1.60;;;1.50;;
9968;SDS011;5025;48.890;9.278;2024-03-17T14:24:05;1.97;;;1.80;;
9968;SDS011;5025;48.890;9.278;2024-03-17T14:26:32;2.07;;;1.97;;
9968;SDS011;5025;48.890;9.278;2024-03-17T14:28:58;1.73;;;1.63;;
9968;SDS011;5025;48.890;9.278;2024-03-17T14:31:25;1.80;;;1.70;;
9968;SDS011;5025;48.890;9.278;2024-03-17T14:33:50;2.03;;;1.83;;
9968;SDS011;5025;48.890;9.278;2024-03-17T14:36:15;1.70;;;1.60;;
9968;SDS011;5025;48.890;9.278;2024-03-17T14:38:40;1.93;;;1.83;;
9968;SDS011;5025;48.890;9.278;2024-03-17T14:41:07;2.00;;;1.90;;
9968;SDS011;5025;48.890;9.278;2024-03-17T14:43:33;1.90;;;1.80;;
9968;SDS011;5025;48.890;9.278;2024-03-17T14:46:03;1.73;;;1.63;;
9968;SDS011;5025;48.890;9.278;2024-03-17T14:48:28;1.90;;;1.73;;
9968;SDS011;5025;48.890;9.278;2024-03-17T14:50:53;2.10;;;1.80;;
9968;SDS011;5025;48.890;9.278;2024-03-17T14:53:18;1.97;;;1.80;;
9968;SDS011;5025;48.890;9.278;2024-03-17T14:55:45;1.60;;;1.50;;
9968;SDS011;5025;48.890;9.278;2024-03-17T14:58:10;1.70;;;1.60;;
9968;SDS011;5025;48.890;9.278;2024-03-17T15:00:37;1.73;;;1.63;;
9968;SDS011;5025;48.890;9.278;2024-03-17T15:03:03;2.00;;;1.87;;
9968;SDS011;5025;48.890;9.278;2024-03-17T15:05:30;1.87;;;1.77;;
9968;SDS011;5025;48.890;9.278;2024-03-17T15:07:56;1.53;;;1.53;;
9968;SDS011;5025;48.890;9.278;2024-03-17T15:10:22;1.80;;;1.70;;
9968;SDS011;5025;48.890;9.278;2024-03-17T15:12:48;1.60;;;1.60;;
9968;SDS011;5025;48.890;9.278;2024-03-17T15:15:13;1.80;;;1.70;;
9968;SDS011;5025;48.890;9.278;2024-03-17T15:17:39;1.60;;;1.50;;
9968;SDS011;5025;48.890;9.278;2024-03-17T15:20:05;1.80;;;1.70;;
9968;SDS011;5025;48.890;9.278;2024-03-17T15:22:41;1.90;;;1.70;;
9968;SDS011;5025;48.890;9.278;2024-03-17T15:25:06;1.80;;;1.70;;
9968;SDS011;5025;48.890;9.278;2024-03-17T15:27:34;1.80;;;1.70;;
9968;SDS011;5025;48.890;9.278;2024-03-17T15:29:59;1.53;;;1.50;;
9968;SDS011;5025;48.890;9.278;2024-03-17T15:32:25;1.47;;;1.40;;
9968;SDS011;5025;48.890;9.278;2024-03-17T15:34:50;1.40;;;1.40;;
9968;SDS011;5025;48.890;9.278;2024-03-17T15:37:15;1.50;;;1.50;;
9968;SDS011;5025;48.890;9.278;2024-03-17T15:39:41;1.70;;;1.60;;
9968;SDS011;5025;48.890;9.278;2024-03-17T15:42:07;1.73;;;1.63;;
9968;SDS011;5025;48.890;9.278;2024-03-17T15:44:36;1.53;;;1.43;;
9968;SDS011;5025;48.890;9.278;2024-03-17T15:47:01;1.83;;;1.73;;